Time;durP1;ratioP1;P1;durP2;ratioP2;P2;SDS_P1;SDS_P2;PMS_P1;PMS_P2;Temp;Humidity;BMP_temperature;BMP_pressure;BME280_temperature;BME280_humidity;BME280_pressure;Samples;Min_cycle;Max_cycle;Signal;HPM_P1;HPM_P2
2021/09/18 00:01:52;;;;;;;14.93;8.90;;;12.50;95.00;;;;;;5028539;28;20189;-77
2021/09/18 00:04:18;;;;;;;14.13;8.80;;;12.60;95.20;;;;;;5031434;28;20200;-77
2021/09/18 00:06:44;;;;;;;15.03;9.10;;;12.60;95.30;;;;;;5032120;28;20216;-78
2021/09/18 00:09:09;;;;;;;14.87;9.40;;;12.70;95.30;;;;;;5032242;28;20660;-77
2021/09/18 00:11:35;;;;;;;15.80;8.50;;;12.70;95.40;;;;;;5031681;28;20227;-77
2021/09/18 00:14:01;;;;;;;14.40;8.87;;;12.60;95.50;;;;;;5029687;28;20192;-77
2021/09/18 00:16:27;;;;;;;13.40;8.57;;;12.70;95.10;;;;;;5030457;28;20208;-77
2021/09/18 00:18:53;;;;;;;16.03;9.13;;;12.70;94.90;;;;;;5029023;28;20431;-76
2021/09/18 00:21:18;;;;;;;15.83;9.20;;;12.70;94.20;;;;;;5030104;28;20503;-77
2021/09/18 00:23:44;;;;;;;12.60;8.20;;;12.70;94.40;;;;;;5029011;28;20290;-77
2021/09/18 00:26:10;;;;;;;14.20;9.50;;;12.60;94.40;;;;;;5027929;28;20259;-78
2021/09/18 00:28:37;;;;;;;11.93;8.60;;;12.50;94.50;;;;;;5031454;28;20193;-78
2021/09/18 00:31:03;;;;;;;16.83;9.50;;;12.40;95.00;;;;;;5032139;28;20701;-77
2021/09/18 00:33:29;;;;;;;16.20;9.33;;;12.30;95.20;;;;;;5031417;28;20447;-77
2021/09/18 00:35:55;;;;;;;13.93;8.37;;;12.30;95.30;;;;;;5031894;28;20550;-77
2021/09/18 00:38:20;;;;;;;15.60;10.10;;;12.30;95.40;;;;;;5027140;28;20272;-76
2021/09/18 00:40:46;;;;;;;16.27;10.57;;;12.30;95.40;;;;;;5031107;28;20215;-76
2021/09/18 00:43:12;;;;;;;16.77;9.20;;;12.30;95.60;;;;;;5029808;28;20188;-77
2021/09/18 00:45:38;;;;;;;15.13;9.70;;;12.30;95.60;;;;;;5030373;28;21333;-78
2021/09/18 00:48:05;;;;;;;17.47;9.80;;;12.30;95.40;;;;;;5021171;28;20351;-77
2021/09/18 00:50:31;;;;;;;16.43;9.47;;;12.30;95.40;;;;;;5025724;28;20193;-77
2021/09/18 00:52:58;;;;;;;20.47;11.13;;;12.20;95.40;;;;;;5030007;28;20431;-77
2021/09/18 00:55:25;;;;;;;16.40;9.40;;;12.20;95.40;;;;;;5022745;28;20283;-76
2021/09/18 00:57:51;;;;;;;17.20;9.87;;;12.20;95.70;;;;;;5028791;28;20514;-76
2021/09/18 01:00:17;;;;;;;15.10;10.07;;;12.30;95.70;;;;;;5027399;28;20476;-76
2021/09/18 01:02:42;;;;;;;18.20;10.40;;;12.30;95.60;;;;;;5023800;28;20268;-77
2021/09/18 01:05:09;;;;;;;14.10;9.73;;;12.30;95.60;;;;;;5027270;28;20432;-77
2021/09/18 01:07:36;;;;;;;18.67;10.63;;;12.30;95.70;;;;;;5027806;28;20226;-77
2021/09/18 01:10:03;;;;;;;17.50;10.07;;;12.30;95.70;;;;;;5018515;28;20830;-77
2021/09/18 01:12:29;;;;;;;20.00;10.67;;;12.30;95.60;;;;;;5025420;28;20424;-76
2021/09/18 01:14:55;;;;;;;13.70;9.77;;;12.30;95.60;;;;;;5028408;28;20506;-76
2021/09/18 01:17:20;;;;;;;16.27;9.83;;;12.30;95.70;;;;;;5028674;28;20205;-76
2021/09/18 01:19:46;;;;;;;15.87;9.53;;;12.30;95.90;;;;;;5030184;28;20635;-76
2021/09/18 01:22:14;;;;;;;21.00;9.10;;;12.30;96.10;;;;;;5028900;28;20186;-76
2021/09/18 01:24:39;;;;;;;14.07;8.20;;;12.40;96.20;;;;;;5029852;28;20186;-78
2021/09/18 01:27:06;;;;;;;15.07;9.57;;;12.40;96.20;;;;;;5020835;28;20917;-77
2021/09/18 01:29:31;;;;;;;16.67;9.43;;;12.30;96.40;;;;;;5029019;28;20588;-76
2021/09/18 01:31:57;;;;;;;15.13;9.10;;;12.30;96.40;;;;;;5029555;28;20446;-77
2021/09/18 01:34:24;;;;;;;15.30;9.73;;;12.30;96.50;;;;;;5023280;28;20294;-76
2021/09/18 01:36:51;;;;;;;15.27;10.10;;;12.40;96.40;;;;;;5027485;28;20221;-76
2021/09/18 01:39:18;;;;;;;15.50;10.10;;;12.40;96.30;;;;;;5020114;28;20538;-76
2021/09/18 01:41:46;;;;;;;15.60;8.70;;;12.40;96.30;;;;;;5030593;28;20427;-77
2021/09/18 01:44:12;;;;;;;14.60;9.40;;;12.40;96.40;;;;;;5031404;28;20895;-76
2021/09/18 01:46:39;;;;;;;14.50;9.23;;;12.40;96.50;;;;;;5030127;28;20451;-76
2021/09/18 01:49:11;;;;;;;16.10;10.43;;;12.40;96.30;;;;;;5065879;28;20424;-77
2021/09/18 01:51:52;;;;;;;15.40;9.60;;;12.40;96.30;;;;;;5024624;28;20848;-76
2021/09/18 01:54:19;;;;;;;15.33;9.80;;;12.40;96.20;;;;;;5029487;28;20434;-76
2021/09/18 01:56:44;;;;;;;18.73;9.30;;;12.40;95.80;;;;;;5033691;28;20438;-77
2021/09/18 01:59:10;;;;;;;14.23;9.50;;;12.40;95.10;;;;;;5033719;28;20419;-77
2021/09/18 02:01:36;;;;;;;16.57;9.27;;;12.30;94.60;;;;;;5026730;28;20185;-76
2021/09/18 02:04:01;;;;;;;17.20;10.10;;;12.20;94.60;;;;;;5033346;28;20659;-77
2021/09/18 02:06:27;;;;;;;13.80;9.37;;;12.10;95.10;;;;;;5032854;28;20751;-75
2021/09/18 02:08:53;;;;;;;15.60;10.40;;;12.10;95.40;;;;;;5034272;28;20602;-75
2021/09/18 02:11:19;;;;;;;15.13;9.13;;;12.00;95.60;;;;;;5034209;28;20203;-75
2021/09/18 02:13:44;;;;;;;18.63;10.20;;;12.00;96.00;;;;;;5034343;28;20555;-74
2021/09/18 02:16:10;;;;;;;18.43;11.60;;;12.00;96.10;;;;;;5034175;28;20209;-74
2021/09/18 02:18:36;;;;;;;17.90;10.60;;;12.10;96.30;;;;;;5034402;28;20569;-74
2021/09/18 02:21:01;;;;;;;18.60;10.20;;;12.10;96.50;;;;;;5034283;28;20209;-75
2021/09/18 02:23:27;;;;;;;20.03;11.00;;;12.10;96.70;;;;;;5034129;28;20268;-75
2021/09/18 02:25:53;;;;;;;14.20;9.10;;;12.10;96.30;;;;;;5034047;28;20564;-76
2021/09/18 02:28:19;;;;;;;17.33;9.53;;;12.10;95.50;;;;;;5034157;28;20177;-76
2021/09/18 02:30:44;;;;;;;15.80;9.83;;;12.10;95.50;;;;;;5037940;28;20709;-75
2021/09/18 02:33:10;;;;;;;20.40;11.47;;;12.00;95.50;;;;;;5034917;28;20192;-74
2021/09/18 02:35:36;;;;;;;17.77;10.73;;;12.00;95.50;;;;;;5032305;28;20351;-74
2021/09/18 02:38:03;;;;;;;20.53;11.13;;;11.90;95.60;;;;;;5033433;28;20268;-78
2021/09/18 02:40:29;;;;;;;19.50;12.07;;;11.90;96.10;;;;;;5032695;28;20468;-77
2021/09/18 02:43:00;;;;;;;18.03;11.27;;;11.90;96.10;;;;;;5030611;28;20423;-77
2021/09/18 02:45:26;;;;;;;18.50;10.40;;;12.00;96.30;;;;;;5036552;28;20470;-78
2021/09/18 02:47:52;;;;;;;17.83;10.30;;;12.00;96.50;;;;;;5036775;28;20510;-77
2021/09/18 02:50:20;;;;;;;15.93;10.23;;;12.00;96.60;;;;;;5034853;28;20433;-76
2021/09/18 02:52:46;;;;;;;14.40;9.30;;;12.00;96.70;;;;;;5036700;28;20473;-78
2021/09/18 02:55:12;;;;;;;18.67;10.10;;;12.00;96.90;;;;;;5035315;28;20424;-77
2021/09/18 02:57:38;;;;;;;20.23;9.73;;;12.10;96.30;;;;;;5035202;28;20485;-77
2021/09/18 03:00:06;;;;;;;17.93;9.93;;;12.00;96.00;;;;;;5026223;28;20468;-77
2021/09/18 03:02:32;;;;;;;17.03;10.67;;;12.00;96.00;;;;;;5035765;28;20412;-77
2021/09/18 03:04:58;;;;;;;21.00;10.40;;;11.90;95.90;;;;;;5031025;28;20457;-78
2021/09/18 03:07:23;;;;;;;17.10;10.10;;;11.90;96.00;;;;;;5036449;28;20448;-76
2021/09/18 03:09:49;;;;;;;16.77;9.57;;;11.80;95.60;;;;;;5037667;28;20204;-74
2021/09/18 03:12:15;;;;;;;17.47;9.90;;;11.70;95.70;;;;;;5033132;28;20193;-78
2021/09/18 03:14:41;;;;;;;20.77;10.70;;;11.60;96.20;;;;;;5031282;28;20227;-77
2021/09/18 03:17:07;;;;;;;17.10;10.53;;;11.50;96.50;;;;;;5034895;28;20209;-76
2021/09/18 03:19:32;;;;;;;18.23;10.20;;;11.40;96.70;;;;;;5034266;28;20488;-77
2021/09/18 03:21:58;;;;;;;17.63;10.47;;;11.50;97.00;;;;;;5034143;28;20208;-75
2021/09/18 03:24:24;;;;;;;17.70;10.43;;;11.50;97.10;;;;;;5034216;28;20188;-77
2021/09/18 03:26:50;;;;;;;18.70;10.80;;;11.50;97.10;;;;;;5034035;28;20299;-77
2021/09/18 03:29:17;;;;;;;19.37;11.27;;;11.60;97.00;;;;;;5032879;28;20185;-77
2021/09/18 03:31:42;;;;;;;17.50;10.57;;;11.50;96.90;;;;;;5033133;28;20446;-78
2021/09/18 03:34:08;;;;;;;21.10;11.07;;;11.50;96.90;;;;;;5032966;28;21092;-77
2021/09/18 03:36:34;;;;;;;22.13;10.60;;;11.50;97.10;;;;;;5031952;28;20305;-78
2021/09/18 03:39:00;;;;;;;18.67;10.70;;;11.50;97.20;;;;;;5026311;28;20186;-78
2021/09/18 03:41:26;;;;;;;19.67;10.37;;;11.50;97.20;;;;;;5035602;28;20431;-76
2021/09/18 03:43:52;;;;;;;14.43;9.00;;;11.50;97.30;;;;;;5037206;28;20213;-75
2021/09/18 03:46:18;;;;;;;17.50;9.03;;;11.60;97.30;;;;;;5041224;28;20438;-76
2021/09/18 03:48:43;;;;;;;20.23;10.17;;;11.60;97.10;;;;;;5046721;28;20249;-77
2021/09/18 03:51:09;;;;;;;19.10;11.67;;;11.60;97.20;;;;;;5039938;28;20204;-76
2021/09/18 03:53:35;;;;;;;16.10;9.93;;;11.60;97.40;;;;;;5037787;28;20216;-76
2021/09/18 03:56:01;;;;;;;18.40;9.53;;;11.70;97.40;;;;;;5045673;28;20263;-76
2021/09/18 03:58:27;;;;;;;20.47;10.13;;;11.70;97.20;;;;;;5045278;28;20188;-77
2021/09/18 04:00:53;;;;;;;19.73;9.87;;;11.70;97.20;;;;;;5044754;28;20471;-76
2021/09/18 04:03:19;;;;;;;14.30;9.10;;;11.80;97.10;;;;;;5045123;28;20411;-74
2021/09/18 04:05:44;;;;;;;18.50;10.30;;;11.80;97.10;;;;;;5044253;28;20440;-76
2021/09/18 04:08:11;;;;;;;16.27;9.23;;;11.80;96.90;;;;;;5044659;28;20193;-76
2021/09/18 04:10:37;;;;;;;19.17;10.20;;;11.70;96.90;;;;;;5045724;28;20197;-77
2021/09/18 04:13:04;;;;;;;15.33;10.03;;;11.70;96.80;;;;;;5044219;28;20431;-76
2021/09/18 04:15:30;;;;;;;18.40;9.80;;;11.80;96.60;;;;;;5042819;28;20459;-76
2021/09/18 04:17:56;;;;;;;20.60;9.87;;;11.80;96.00;;;;;;5037758;28;20507;-76
2021/09/18 04:20:22;;;;;;;19.03;10.47;;;11.70;95.60;;;;;;5039190;28;20471;-76
2021/09/18 04:22:48;;;;;;;19.63;10.70;;;11.60;95.40;;;;;;5034130;28;20420;-76
2021/09/18 04:25:14;;;;;;;22.77;9.93;;;11.60;95.40;;;;;;5038017;28;20431;-76
2021/09/18 04:27:40;;;;;;;18.73;10.60;;;11.60;95.40;;;;;;5038803;28;20595;-76
2021/09/18 04:30:07;;;;;;;17.67;10.43;;;11.50;95.70;;;;;;5038860;28;20424;-76
2021/09/18 04:32:33;;;;;;;19.10;11.40;;;11.40;95.90;;;;;;5035036;28;20192;-76
2021/09/18 04:34:58;;;;;;;19.23;10.57;;;11.30;96.10;;;;;;5043135;28;20460;-76
2021/09/18 04:37:25;;;;;;;15.00;9.73;;;11.30;96.60;;;;;;5036100;28;20466;-76
2021/09/18 04:39:51;;;;;;;16.50;9.87;;;11.40;96.80;;;;;;5037259;28;20243;-75
2021/09/18 04:42:17;;;;;;;18.70;10.70;;;11.40;96.80;;;;;;5039026;28;20420;-75
2021/09/18 04:44:43;;;;;;;17.40;10.87;;;11.40;96.70;;;;;;5045244;28;20462;-75
2021/09/18 04:47:09;;;;;;;18.70;10.57;;;11.40;96.80;;;;;;5034896;28;20443;-75
2021/09/18 04:49:36;;;;;;;21.27;11.87;;;11.40;96.70;;;;;;5032009;28;20197;-78
2021/09/18 04:52:02;;;;;;;19.40;11.30;;;11.50;96.40;;;;;;5030300;28;20189;-75
2021/09/18 04:54:28;;;;;;;18.03;10.70;;;11.30;96.50;;;;;;5029185;28;20486;-76
2021/09/18 04:56:54;;;;;;;21.83;13.63;;;11.30;96.80;;;;;;5027055;28;20451;-76
2021/09/18 04:59:20;;;;;;;17.00;9.60;;;11.20;96.90;;;;;;5031056;28;20193;-75
2021/09/18 05:01:45;;;;;;;19.20;10.00;;;11.20;96.80;;;;;;5031506;28;20280;-75
2021/09/18 05:04:11;;;;;;;19.13;9.73;;;11.30;96.60;;;;;;5031079;28;20235;-75
2021/09/18 05:06:37;;;;;;;20.37;11.00;;;11.20;96.60;;;;;;5031168;28;20244;-76
2021/09/18 05:09:03;;;;;;;15.97;10.23;;;11.20;96.70;;;;;;5029983;28;20185;-77
2021/09/18 05:11:29;;;;;;;18.37;9.63;;;11.20;96.50;;;;;;5031209;28;20196;-75
2021/09/18 05:13:55;;;;;;;19.80;10.67;;;11.20;96.50;;;;;;5029551;28;20439;-75
2021/09/18 05:16:21;;;;;;;17.83;11.27;;;11.10;96.50;;;;;;5031488;28;20447;-76
2021/09/18 05:18:46;;;;;;;21.80;10.40;;;11.10;96.50;;;;;;5031460;28;20191;-76
2021/09/18 05:21:12;;;;;;;20.07;11.00;;;11.10;96.60;;;;;;5031048;28;20213;-75
2021/09/18 05:23:38;;;;;;;17.77;11.13;;;11.10;96.80;;;;;;5035358;28;20304;-75
2021/09/18 05:26:04;;;;;;;19.07;11.13;;;11.10;96.90;;;;;;5033984;28;20308;-75
2021/09/18 05:28:29;;;;;;;21.47;11.53;;;11.10;96.90;;;;;;5035447;28;20181;-76
2021/09/18 05:30:55;;;;;;;20.20;11.00;;;11.10;97.00;;;;;;5035743;28;20200;-77
2021/09/18 05:33:21;;;;;;;19.40;11.00;;;11.20;97.10;;;;;;5035091;28;20193;-76
2021/09/18 05:35:46;;;;;;;20.20;11.10;;;11.10;97.00;;;;;;5034951;28;20258;-75
2021/09/18 05:38:12;;;;;;;22.93;10.77;;;11.20;97.20;;;;;;5035058;28;20668;-75
2021/09/18 05:40:38;;;;;;;22.87;12.33;;;11.20;97.30;;;;;;5035137;28;20290;-76
2021/09/18 05:43:03;;;;;;;21.53;10.57;;;11.20;97.40;;;;;;5034986;28;20255;-76
2021/09/18 05:45:29;;;;;;;20.20;10.63;;;11.30;97.40;;;;;;5034990;28;20182;-75
2021/09/18 05:47:55;;;;;;;18.77;10.13;;;11.40;97.30;;;;;;5034877;28;20212;-74
2021/09/18 05:50:20;;;;;;;20.27;10.70;;;11.40;97.00;;;;;;5034723;28;20702;-76
2021/09/18 05:52:46;;;;;;;19.80;10.63;;;11.40;96.90;;;;;;5034605;28;20203;-75
2021/09/18 05:55:12;;;;;;;17.90;10.90;;;11.40;96.80;;;;;;5033938;28;20557;-74
2021/09/18 05:57:38;;;;;;;16.87;9.80;;;11.40;96.50;;;;;;5034929;28;20212;-75
2021/09/18 06:00:05;;;;;;;17.40;10.07;;;11.40;95.20;;;;;;5037654;28;20467;-75
2021/09/18 06:02:31;;;;;;;22.40;11.17;;;11.30;94.90;;;;;;5034445;28;20251;-75
2021/09/18 06:04:56;;;;;;;24.57;11.90;;;11.30;95.40;;;;;;5034100;28;20420;-75
2021/09/18 06:07:22;;;;;;;20.50;12.37;;;11.20;95.70;;;;;;5034301;28;20205;-76
2021/09/18 06:09:48;;;;;;;17.47;10.37;;;11.20;96.00;;;;;;5034272;28;20267;-77
2021/09/18 06:12:14;;;;;;;21.10;12.70;;;11.30;96.10;;;;;;5033470;28;20196;-75
2021/09/18 06:14:39;;;;;;;24.63;12.10;;;11.30;96.20;;;;;;5033862;28;20193;-74
2021/09/18 06:17:05;;;;;;;20.00;10.10;;;11.40;96.20;;;;;;5034231;28;20213;-76
2021/09/18 06:19:31;;;;;;;21.73;10.63;;;11.40;96.30;;;;;;5034232;28;20216;-76
2021/09/18 06:21:56;;;;;;;27.93;12.90;;;11.50;96.50;;;;;;5029320;28;20208;-75
2021/09/18 06:24:22;;;;;;;20.83;12.03;;;11.50;96.50;;;;;;5033788;28;20211;-74
2021/09/18 06:26:48;;;;;;;20.40;11.20;;;11.60;96.60;;;;;;5033609;28;20237;-76
2021/09/18 06:29:14;;;;;;;22.53;11.43;;;11.60;96.50;;;;;;5034022;28;20713;-75
2021/09/18 06:31:40;;;;;;;17.73;11.47;;;11.70;96.40;;;;;;5032781;28;20423;-78
2021/09/18 06:34:06;;;;;;;18.30;10.60;;;11.80;96.20;;;;;;5033727;28;20189;-75
2021/09/18 06:36:32;;;;;;;19.47;10.93;;;11.90;96.10;;;;;;5034034;28;20555;-74
2021/09/18 06:38:57;;;;;;;18.00;10.70;;;11.90;96.00;;;;;;5034104;28;20189;-76
2021/09/18 06:41:24;;;;;;;20.87;10.77;;;12.00;95.80;;;;;;5033728;28;20282;-74
2021/09/18 06:43:51;;;;;;;21.17;12.10;;;12.00;95.70;;;;;;5033837;28;20922;-74
2021/09/18 06:46:16;;;;;;;16.70;9.70;;;12.00;95.70;;;;;;5065862;28;20450;-75
2021/09/18 06:48:42;;;;;;;23.37;11.90;;;12.10;95.60;;;;;;5034237;28;20208;-76
2021/09/18 06:51:08;;;;;;;20.10;11.20;;;12.10;95.70;;;;;;5034085;28;20191;-75
2021/09/18 06:53:34;;;;;;;21.00;11.43;;;12.20;95.40;;;;;;5032443;28;20722;-76
2021/09/18 06:56:00;;;;;;;19.07;11.17;;;12.30;95.30;;;;;;5032376;28;20485;-78
2021/09/18 06:58:25;;;;;;;23.43;12.40;;;12.40;95.10;;;;;;5032893;28;20181;-76
2021/09/18 07:00:51;;;;;;;20.07;13.00;;;12.40;95.10;;;;;;5025978;28;20205;-78
2021/09/18 07:03:17;;;;;;;24.87;12.77;;;12.50;95.10;;;;;;5027647;28;20277;-78
2021/09/18 07:05:43;;;;;;;23.30;12.13;;;12.60;95.00;;;;;;5032073;28;20753;-79
2021/09/18 07:08:08;;;;;;;20.43;11.90;;;12.60;94.70;;;;;;5032331;28;20424;-77
2021/09/18 07:10:34;;;;;;;21.73;12.60;;;12.70;94.50;;;;;;5032430;28;20201;-77
2021/09/18 07:13:00;;;;;;;21.40;13.03;;;12.70;94.50;;;;;;5032096;28;20339;-78
2021/09/18 07:15:26;;;;;;;28.33;14.90;;;12.70;94.20;;;;;;5030728;28;20439;-77
2021/09/18 07:17:52;;;;;;;24.10;12.87;;;12.60;94.40;;;;;;5032627;28;20707;-77
2021/09/18 07:20:18;;;;;;;25.90;13.57;;;12.60;94.50;;;;;;5032137;28;20475;-77
2021/09/18 07:22:44;;;;;;;22.77;13.00;;;12.70;94.50;;;;;;5030223;28;20446;-76
2021/09/18 07:25:10;;;;;;;25.83;13.27;;;12.90;94.50;;;;;;5032053;28;20196;-75
2021/09/18 07:27:37;;;;;;;20.37;12.00;;;13.00;94.30;;;;;;5026979;28;20212;-75
2021/09/18 07:30:04;;;;;;;20.17;11.50;;;13.10;93.90;;;;;;5032163;28;20428;-75
2021/09/18 07:32:29;;;;;;;18.97;11.80;;;13.20;93.70;;;;;;5032918;28;20427;-77
2021/09/18 07:34:55;;;;;;;21.67;11.90;;;13.30;93.50;;;;;;5033296;28;20511;-75
2021/09/18 07:37:21;;;;;;;24.43;13.00;;;13.40;93.50;;;;;;5032661;28;20225;-75
2021/09/18 07:39:48;;;;;;;22.00;12.07;;;13.40;93.50;;;;;;5032656;28;20375;-75
2021/09/18 07:42:13;;;;;;;18.80;11.13;;;13.40;93.60;;;;;;5033346;28;20236;-75
2021/09/18 07:44:39;;;;;;;23.70;14.13;;;13.50;93.40;;;;;;5031894;28;20519;-75
2021/09/18 07:47:05;;;;;;;25.50;13.10;;;13.50;93.30;;;;;;5031209;28;20863;-77
2021/09/18 07:49:31;;;;;;;24.80;13.90;;;13.60;92.80;;;;;;5032972;28;20184;-77
2021/09/18 07:51:56;;;;;;;22.87;12.27;;;13.70;92.50;;;;;;5032867;28;20747;-77
2021/09/18 07:54:23;;;;;;;30.03;13.60;;;13.90;91.70;;;;;;5032951;28;20260;-76
2021/09/18 07:56:48;;;;;;;22.60;12.50;;;14.00;91.20;;;;;;5032691;28;20213;-77
2021/09/18 07:59:14;;;;;;;22.23;12.57;;;14.10;91.30;;;;;;5032432;28;20435;-76
2021/09/18 08:01:40;;;;;;;24.33;13.50;;;14.20;91.20;;;;;;5032445;28;20923;-77
2021/09/18 08:04:06;;;;;;;18.83;11.40;;;14.30;90.80;;;;;;5031026;28;20269;-76
2021/09/18 08:06:33;;;;;;;21.00;11.87;;;14.40;90.30;;;;;;5032223;28;20200;-76
2021/09/18 08:09:00;;;;;;;20.10;11.40;;;14.50;90.40;;;;;;5032262;28;20432;-76
2021/09/18 08:11:26;;;;;;;19.40;11.43;;;14.50;90.20;;;;;;5032368;28;20448;-76
2021/09/18 08:13:54;;;;;;;23.87;12.30;;;14.60;90.20;;;;;;5031999;28;20442;-76
2021/09/18 08:16:21;;;;;;;24.13;10.60;;;14.70;89.70;;;;;;5030415;28;20213;-76
2021/09/18 08:18:47;;;;;;;18.87;11.60;;;14.90;89.70;;;;;;5031815;28;20868;-76
2021/09/18 08:21:13;;;;;;;20.07;11.40;;;14.90;89.50;;;;;;5030015;28;20837;-76
2021/09/18 08:23:40;;;;;;;16.27;9.93;;;15.00;89.20;;;;;;5031968;28;20980;-75
2021/09/18 08:26:08;;;;;;;17.57;9.63;;;15.10;89.00;;;;;;5030415;28;20440;-75
2021/09/18 08:28:33;;;;;;;16.10;9.70;;;15.10;89.00;;;;;;5031941;28;20936;-74
2021/09/18 08:30:59;;;;;;;18.77;10.80;;;15.20;88.70;;;;;;5033242;28;20478;-74
2021/09/18 08:33:25;;;;;;;14.60;9.70;;;15.30;88.60;;;;;;5033524;28;20451;-75
2021/09/18 08:35:51;;;;;;;19.27;10.87;;;15.40;87.80;;;;;;5032250;28;20339;-76
2021/09/18 08:38:18;;;;;;;18.37;10.50;;;15.50;87.70;;;;;;5037601;28;20535;-76
2021/09/18 08:40:44;;;;;;;16.97;10.23;;;15.50;87.30;;;;;;5027772;28;20220;-75
2021/09/18 08:43:10;;;;;;;18.70;9.27;;;15.60;87.10;;;;;;5032738;28;20434;-74
2021/09/18 08:45:36;;;;;;;16.93;10.20;;;15.60;86.60;;;;;;5035996;28;20433;-75
2021/09/18 08:48:04;;;;;;;15.40;9.87;;;15.70;86.60;;;;;;5033577;28;20501;-76
2021/09/18 08:50:31;;;;;;;16.67;9.17;;;15.70;86.60;;;;;;5032081;28;20429;-77
2021/09/18 08:52:57;;;;;;;13.43;9.70;;;15.90;86.50;;;;;;5024469;28;20435;-76
2021/09/18 08:55:23;;;;;;;16.37;10.47;;;16.00;85.70;;;;;;5034682;28;20426;-74
2021/09/18 08:57:49;;;;;;;15.50;9.40;;;16.00;85.60;;;;;;5034511;28;20193;-77
2021/09/18 09:00:30;;;;;;;16.20;9.93;;;16.10;85.20;;;;;;5034490;28;20489;-75
2021/09/18 09:03:07;;;;;;;21.00;11.30;;;16.30;84.90;;;;;;5032660;28;20432;-75
2021/09/18 09:05:38;;;;;;;15.67;10.03;;;16.20;84.60;;;;;;5026894;28;20807;-75
2021/09/18 09:08:04;;;;;;;13.57;9.20;;;16.30;85.00;;;;;;5033668;28;20478;-77
2021/09/18 09:10:29;;;;;;;17.27;10.17;;;16.50;84.40;;;;;;5041136;28;20960;-76
2021/09/18 09:13:11;;;;;;;18.53;9.43;;;16.60;84.00;;;;;;5032010;28;20192;-76
2021/09/18 09:15:37;;;;;;;12.53;8.40;;;16.70;83.60;;;;;;5025802;28;20212;-76
2021/09/18 09:18:25;;;;;;;12.93;8.07;;;16.90;83.10;;;;;;5032128;28;20435;-75
2021/09/18 09:21:09;;;;;;;17.93;8.60;;;17.00;82.80;;;;;;5026205;28;20980;-76
2021/09/18 09:23:35;;;;;;;14.70;9.30;;;17.10;82.70;;;;;;5024417;28;20423;-75
2021/09/18 09:26:02;;;;;;;12.33;8.07;;;17.20;82.40;;;;;;5031308;28;20439;-75
2021/09/18 09:28:29;;;;;;;14.20;8.43;;;17.30;81.50;;;;;;5030818;28;20863;-77
2021/09/18 09:31:16;;;;;;;14.37;8.47;;;17.50;80.80;;;;;;5031473;28;20431;-75
2021/09/18 09:34:06;;;;;;;12.03;8.57;;;17.60;79.70;;;;;;5031180;28;20439;-76
2021/09/18 09:36:40;;;;;;;12.20;7.93;;;17.70;79.50;;;;;;5031046;28;20451;-75
2021/09/18 09:39:08;;;;;;;12.50;8.27;;;17.80;78.90;;;;;;5031167;28;20415;-75
2021/09/18 09:41:42;;;;;;;20.30;12.73;;;17.80;78.30;;;;;;5029634;28;20474;-75
2021/09/18 09:44:12;;;;;;;13.33;7.43;;;17.80;77.80;;;;;;5031037;28;20431;-74
2021/09/18 09:46:38;;;;;;;11.67;7.53;;;18.00;77.60;;;;;;5031573;28;20524;-76
2021/09/18 09:49:15;;;;;;;10.13;6.73;;;18.10;77.30;;;;;;5032448;28;20455;-76
2021/09/18 09:51:43;;;;;;;9.60;7.00;;;18.20;75.90;;;;;;5032106;28;20453;-77
2021/09/18 09:54:20;;;;;;;8.20;6.27;;;18.40;74.20;;;;;;5032739;28;20429;-76
2021/09/18 09:56:46;;;;;;;10.20;6.10;;;18.40;74.30;;;;;;5027422;28;20486;-76
2021/09/18 09:59:25;;;;;;;9.60;5.53;;;18.40;74.80;;;;;;5031790;28;20486;-75
2021/09/18 10:01:51;;;;;;;5.87;4.27;;;18.60;72.90;;;;;;5030910;28;20765;-75
2021/09/18 10:04:17;;;;;;;6.10;3.80;;;18.70;69.90;;;;;;5030659;28;20846;-75
2021/09/18 10:06:44;;;;;;;3.30;3.10;;;18.70;68.50;;;;;;5031447;28;20456;-75
2021/09/18 10:09:10;;;;;;;4.70;2.93;;;18.80;67.20;;;;;;5035555;28;20426;-76
2021/09/18 10:11:36;;;;;;;5.53;3.70;;;18.90;65.40;;;;;;5046740;28;20419;-77
2021/09/18 10:14:04;;;;;;;4.10;3.37;;;19.00;65.00;;;;;;5035897;28;21033;-75
2021/09/18 10:16:32;;;;;;;4.67;3.10;;;19.20;63.20;;;;;;5027104;28;20439;-76
2021/09/18 10:18:59;;;;;;;4.50;2.27;;;19.20;60.90;;;;;;5034910;28;20418;-75
2021/09/18 10:24:11;;;;;;;4.53;2.50;;;19.30;59.70;;;;;;5034480;28;20574;-76
2021/09/18 10:26:37;;;;;;;7.20;4.80;;;19.30;60.40;;;;;;5040840;28;20834;-76
2021/09/18 10:29:03;;;;;;;12.60;8.40;;;19.30;60.90;;;;;;5032954;28;20927;-75
2021/09/18 10:31:30;;;;;;;7.53;4.70;;;19.40;60.60;;;;;;5032553;28;20431;-75
2021/09/18 10:33:56;;;;;;;5.00;3.97;;;19.40;58.80;;;;;;5030956;28;20841;-74
2021/09/18 10:36:40;;;;;;;6.67;4.20;;;19.60;58.20;;;;;;5033820;28;20455;-75
2021/09/18 10:39:18;;;;;;;2.90;2.30;;;20.00;57.40;;;;;;5030017;28;20442;-75
2021/09/18 10:41:45;;;;;;;5.77;3.67;;;20.40;56.20;;;;;;5033121;28;20438;-76
2021/09/18 10:44:14;;;;;;;5.83;3.83;;;20.80;55.70;;;;;;5033975;28;20501;-75
2021/09/18 10:46:41;;;;;;;4.23;3.90;;;21.30;55.70;;;;;;5034606;28;20449;-75
2021/09/18 10:49:29;;;;;;;4.87;3.63;;;21.80;54.50;;;;;;5033235;28;20549;-75
2021/09/18 10:52:16;;;;;;;5.20;4.80;;;22.20;54.50;;;;;;5028325;28;21182;-76
2021/09/18 10:55:04;;;;;;;5.00;3.13;;;22.80;53.60;;;;;;5027297;28;20422;-74
2021/09/18 10:57:39;;;;;;;5.27;3.70;;;23.30;52.10;;;;;;5026101;28;20503;-75
2021/09/18 11:00:08;;;;;;;4.57;3.87;;;23.80;51.00;;;;;;5014330;28;20458;-75
2021/09/18 11:02:34;;;;;;;5.50;3.90;;;24.20;50.50;;;;;;5028624;28;20423;-75
2021/09/18 11:05:25;;;;;;;5.20;4.07;;;24.80;50.10;;;;;;5033360;28;20429;-75
2021/09/18 11:07:52;;;;;;;9.43;5.97;;;25.30;49.30;;;;;;5025106;28;20582;-74
2021/09/18 11:10:21;;;;;;;5.93;4.37;;;25.40;49.10;;;;;;5033530;28;20470;-76
2021/09/18 11:13:05;;;;;;;5.03;4.23;;;25.40;49.50;;;;;;5031958;28;20454;-75
2021/09/18 11:15:38;;;;;;;5.37;4.17;;;25.50;49.10;;;;;;5031790;28;20431;-76
2021/09/18 11:18:09;;;;;;;6.40;4.73;;;25.60;48.70;;;;;;5029914;28;20756;-76
2021/09/18 11:20:36;;;;;;;6.03;4.10;;;25.40;48.60;;;;;;5030887;28;20459;-75
2021/09/18 11:23:03;;;;;;;7.83;4.90;;;25.50;48.50;;;;;;5031731;28;20838;-76
2021/09/18 11:25:35;;;;;;;5.97;4.57;;;25.60;48.60;;;;;;5027863;28;20422;-75
2021/09/18 11:28:05;;;;;;;7.73;5.30;;;25.80;48.20;;;;;;5032861;28;20421;-75
2021/09/18 11:30:53;;;;;;;6.67;5.03;;;25.80;47.00;;;;;;5033298;28;20423;-75
2021/09/18 11:33:21;;;;;;;5.87;4.77;;;25.00;48.10;;;;;;5032724;28;20452;-76
2021/09/18 11:35:58;;;;;;;7.27;5.07;;;24.80;48.50;;;;;;5033940;28;20460;-76
2021/09/18 11:38:29;;;;;;;6.70;4.20;;;24.10;49.80;;;;;;5033121;28;20957;-76
2021/09/18 11:41:09;;;;;;;9.00;4.37;;;23.80;50.10;;;;;;5035046;28;20834;-75
2021/09/18 11:43:36;;;;;;;4.53;3.63;;;23.60;50.20;;;;;;5028070;28;20449;-77
2021/09/18 11:46:04;;;;;;;5.27;3.53;;;23.60;51.30;;;;;;5034697;28;20515;-75
2021/09/18 11:48:33;;;;;;;4.27;3.60;;;23.90;49.70;;;;;;5035622;28;20420;-75
2021/09/18 11:51:02;;;;;;;7.50;3.73;;;24.00;48.50;;;;;;5034089;28;20464;-75
2021/09/18 11:53:29;;;;;;;6.90;5.33;;;24.20;48.90;;;;;;5032600;28;20427;-75
2021/09/18 11:55:56;;;;;;;5.17;3.77;;;24.60;48.30;;;;;;5031300;28;20980;-76
2021/09/18 11:58:43;;;;;;;4.17;3.87;;;25.10;46.70;;;;;;5032833;28;20429;-74
2021/09/18 12:01:10;;;;;;;8.40;3.90;;;25.40;45.90;;;;;;5031835;28;20600;-75
2021/09/18 12:03:38;;;;;;;5.10;3.70;;;25.00;46.50;;;;;;5030740;28;20442;-74
2021/09/18 12:06:06;;;;;;;4.20;3.30;;;25.10;46.70;;;;;;5032059;28;20940;-75
2021/09/18 12:08:34;;;;;;;6.00;4.20;;;25.20;46.30;;;;;;5036858;28;20485;-75
2021/09/18 12:11:09;;;;;;;8.37;4.53;;;25.30;45.40;;;;;;5031797;28;20416;-75
2021/09/18 12:13:36;;;;;;;4.63;4.03;;;24.60;45.50;;;;;;5022549;28;20433;-75
2021/09/18 12:16:03;;;;;;;7.03;4.70;;;24.20;47.10;;;;;;5031944;28;20973;-77
2021/09/18 12:18:34;;;;;;;5.30;3.87;;;24.00;47.80;;;;;;5024213;28;20514;-75
2021/09/18 12:21:10;;;;;;;4.90;4.00;;;24.30;47.30;;;;;;5033311;28;20463;-75
2021/09/18 12:23:45;;;;;;;5.93;4.57;;;24.40;47.30;;;;;;5040337;28;20453;-75
2021/09/18 12:26:12;;;;;;;5.20;4.30;;;24.60;46.90;;;;;;5035046;28;20480;-77
2021/09/18 12:28:38;;;;;;;5.80;4.50;;;24.80;46.50;;;;;;5035826;28;20444;-75
2021/09/18 12:31:24;;;;;;;5.13;4.20;;;25.10;46.60;;;;;;5034359;28;20428;-75
2021/09/18 12:33:51;;;;;;;4.97;4.00;;;25.20;46.10;;;;;;5033852;28;20429;-75
2021/09/18 12:36:22;;;;;;;6.50;4.80;;;25.30;46.20;;;;;;5035128;28;20469;-75
2021/09/18 12:38:49;;;;;;;5.93;5.40;;;25.20;47.30;;;;;;5033688;28;20500;-76